Meservey, Iowa
Current Conditions -  °F | °C
As of 5:53 AM on Monday 26 Jan 2015 (Local Time) from KMCW Reporting Station
Overcast Overcast  
Wind Chill: 18°   Ceiling: 700
Heat Index: 30°   Visibility: 9mi
Dew Point: 28°   Wind: 18mph
Humidity: 92%   Direction: 200°SSW
Pressure: 29.8"   Gusts: NA
Location:  42.91°N, 93.48°W
Report Text: KMCW 261153Z AUTO 20016KT 9SM OVC007 M01/M02 A2980 RMK AO2 UPB28UPEMM PRESFR SLP100 P0000 60000 T10111022 11011 21039 58040 PWINO FZRANO $
Loading
Personal Weather Stations






























Interactive Weather Map New forecast layout! Learn more

10-Day Weather Forecast

Advertisements
Track Severe Weather on mobile